Time;durP1;ratioP1;P1;durP2;ratioP2;P2;SDS_P1;SDS_P2;PMS_P1;PMS_P2;Temp;Humidity;BMP_temperature;BMP_pressure;BME280_temperature;BME280_humidity;BME280_pressure;Samples;Min_cycle;Max_cycle;Signal;HPM_P1;HPM_P2
2020/12/11 00:00:25;;;;;;;118.43;49.58;;;3.50;85.10;;;;;;5072151;28;20390;-66
2020/12/11 00:02:50;;;;;;;124.18;49.05;;;3.50;85.70;;;;;;5065324;28;20104;-67
2020/12/11 00:05:16;;;;;;;131.45;49.13;;;3.40;86.20;;;;;;5071039;28;20041;-68
2020/12/11 00:07:42;;;;;;;130.43;50.97;;;3.40;86.30;;;;;;5072406;28;20037;-67
2020/12/11 00:10:10;;;;;;;135.73;52.63;;;3.40;86.20;;;;;;5054104;28;20064;-68
2020/12/11 00:12:37;;;;;;;141.32;53.38;;;3.30;86.50;;;;;;5072739;28;20044;-67
2020/12/11 00:15:07;;;;;;;139.30;50.97;;;3.30;86.60;;;;;;5059632;28;20085;-69
2020/12/11 00:17:33;;;;;;;136.68;54.28;;;3.10;87.50;;;;;;5080460;28;20038;-68
2020/12/11 00:19:59;;;;;;;143.18;53.53;;;3.10;88.00;;;;;;5086366;28;20028;-67
2020/12/11 00:22:25;;;;;;;134.20;53.38;;;3.00;88.20;;;;;;5087217;28;20048;-67
2020/12/11 00:24:51;;;;;;;136.25;53.08;;;3.00;88.60;;;;;;5074769;28;20041;-67
2020/12/11 00:27:17;;;;;;;141.68;54.25;;;2.90;88.90;;;;;;5076402;28;20040;-67
2020/12/11 00:29:43;;;;;;;145.32;53.53;;;2.90;89.10;;;;;;5061747;28;20029;-67
2020/12/11 00:32:09;;;;;;;138.30;51.70;;;3.00;88.60;;;;;;5069975;28;20035;-67
2020/12/11 00:34:34;;;;;;;131.18;50.70;;;3.00;88.70;;;;;;5072372;28;20047;-67
2020/12/11 00:37:01;;;;;;;134.95;51.00;;;3.00;88.70;;;;;;5072089;28;20047;-68
2020/12/11 00:39:26;;;;;;;134.70;54.65;;;2.90;89.50;;;;;;5071332;28;20604;-67
2020/12/11 00:41:54;;;;;;;136.35;51.00;;;3.00;88.90;;;;;;5071795;28;20036;-67
2020/12/11 00:44:20;;;;;;;142.65;51.97;;;3.10;88.40;;;;;;5069577;28;20100;-67
2020/12/11 00:46:45;;;;;;;147.07;53.10;;;3.10;88.50;;;;;;5071906;28;20060;-67
2020/12/11 00:49:11;;;;;;;142.45;50.75;;;3.00;88.70;;;;;;5072481;28;20037;-68
2020/12/11 00:51:36;;;;;;;147.63;54.17;;;2.90;89.40;;;;;;5071654;28;20044;-68
2020/12/11 00:54:02;;;;;;;142.95;51.65;;;2.90;89.70;;;;;;5037671;28;20033;-68
2020/12/11 00:56:28;;;;;;;166.48;63.63;;;3.00;89.50;;;;;;5072285;28;20072;-67
2020/12/11 00:58:53;;;;;;;150.20;55.40;;;3.10;90.00;;;;;;5054735;28;20071;-67
2020/12/11 01:01:19;;;;;;;140.60;54.92;;;3.10;89.00;;;;;;5034596;28;20048;-67
2020/12/11 01:03:44;;;;;;;194.52;81.03;;;3.10;89.00;;;;;;5070386;28;20028;-68
2020/12/11 01:06:10;;;;;;;138.45;51.45;;;3.10;89.20;;;;;;5054127;28;20118;-67
2020/12/11 01:08:35;;;;;;;141.35;51.92;;;3.10;88.90;;;;;;5069896;28;20048;-69
2020/12/11 01:11:01;;;;;;;133.45;52.00;;;3.00;89.50;;;;;;5071101;28;20040;-67
2020/12/11 01:13:27;;;;;;;136.73;49.55;;;3.10;89.50;;;;;;5069995;28;20411;-68
2020/12/11 01:15:53;;;;;;;141.77;51.05;;;3.20;89.00;;;;;;5068201;28;20064;-68
2020/12/11 01:18:18;;;;;;;143.00;52.75;;;3.30;88.60;;;;;;5063933;28;20115;-67
2020/12/11 01:20:44;;;;;;;132.68;52.38;;;3.30;88.70;;;;;;5070417;28;20107;-67
2020/12/11 01:23:09;;;;;;;131.40;48.15;;;3.30;88.80;;;;;;5053195;28;20090;-68
2020/12/11 01:25:35;;;;;;;126.57;49.88;;;3.30;88.40;;;;;;5070580;28;20062;-68
2020/12/11 01:28:01;;;;;;;118.90;45.92;;;3.30;88.20;;;;;;5057407;28;20040;-66
2020/12/11 01:30:27;;;;;;;122.80;48.15;;;3.20;87.90;;;;;;5065393;28;20095;-68
2020/12/11 01:32:52;;;;;;;129.05;45.72;;;3.20;88.20;;;;;;5068616;28;20044;-68
2020/12/11 01:35:18;;;;;;;122.43;46.15;;;3.30;88.00;;;;;;5060250;28;20040;-67
2020/12/11 01:37:44;;;;;;;118.90;47.40;;;3.30;88.00;;;;;;5075179;28;20110;-68
2020/12/11 01:40:09;;;;;;;133.80;51.28;;;3.30;87.70;;;;;;5053873;28;20478;-67
2020/12/11 01:42:35;;;;;;;117.78;46.63;;;3.40;87.90;;;;;;5054414;28;20055;-67
2020/12/11 01:45:00;;;;;;;121.97;47.05;;;3.40;87.70;;;;;;5071039;28;20045;-68
2020/12/11 01:47:26;;;;;;;121.55;43.83;;;3.40;87.40;;;;;;5082222;28;20040;-67
2020/12/11 01:49:54;;;;;;;118.93;46.45;;;3.40;87.60;;;;;;5070311;28;20039;-67
2020/12/11 01:52:20;;;;;;;117.50;45.85;;;3.40;87.90;;;;;;5083297;28;20087;-68
2020/12/11 01:54:46;;;;;;;115.05;44.10;;;3.50;90.40;;;;;;5075320;28;20721;-68
2020/12/11 01:57:35;;;;;;;125.18;49.38;;;3.50;88.70;;;;;;5057332;28;20067;-67
2020/12/11 02:00:05;;;;;;;124.32;48.08;;;3.50;87.80;;;;;;5075071;28;20029;-67
2020/12/11 02:02:35;;;;;;;123.57;48.15;;;3.40;87.40;;;;;;5074779;28;20056;-67
2020/12/11 02:05:01;;;;;;;122.60;47.75;;;3.30;88.20;;;;;;5062755;28;20047;-66
2020/12/11 02:07:26;;;;;;;125.60;50.05;;;3.40;88.20;;;;;;5075105;28;20024;-66
2020/12/11 02:09:52;;;;;;;115.43;46.88;;;3.40;88.00;;;;;;5073955;28;20037;-67
2020/12/11 02:12:18;;;;;;;132.18;49.88;;;3.40;87.70;;;;;;5052739;28;20040;-67
2020/12/11 02:14:48;;;;;;;128.43;49.38;;;3.40;87.70;;;;;;5074467;28;20138;-67
2020/12/11 02:17:13;;;;;;;114.30;46.75;;;3.30;88.00;;;;;;5043309;28;20091;-69
2020/12/11 02:19:39;;;;;;;120.22;47.92;;;3.30;88.10;;;;;;5078479;28;20044;-66
2020/12/11 02:22:06;;;;;;;135.13;49.30;;;3.40;88.10;;;;;;5077879;28;20487;-67
2020/12/11 02:24:33;;;;;;;140.13;50.28;;;3.40;88.10;;;;;;5075729;28;20033;-65
2020/12/11 02:27:01;;;;;;;138.40;51.03;;;3.40;87.70;;;;;;5057559;28;20035;-69
2020/12/11 02:29:27;;;;;;;134.27;50.22;;;3.30;87.60;;;;;;5073714;28;20037;-67
2020/12/11 02:31:54;;;;;;;144.68;50.65;;;3.30;88.20;;;;;;5053811;28;20782;-68
2020/12/11 02:34:22;;;;;;;140.60;50.35;;;3.40;88.70;;;;;;5074596;28;20744;-66
2020/12/11 02:36:48;;;;;;;128.43;48.35;;;3.40;88.20;;;;;;5067512;28;20043;-66
2020/12/11 02:39:13;;;;;;;136.73;50.53;;;3.20;88.70;;;;;;5068426;28;20048;-69
2020/12/11 02:41:39;;;;;;;133.82;51.75;;;3.30;88.60;;;;;;5070646;28;20032;-69
2020/12/11 02:44:05;;;;;;;143.50;52.20;;;3.30;88.80;;;;;;5043010;28;20086;-69
2020/12/11 02:46:31;;;;;;;135.63;49.80;;;3.40;88.50;;;;;;5068123;28;20127;-70
2020/12/11 02:48:57;;;;;;;134.98;48.80;;;3.30;88.90;;;;;;5071333;28;20421;-66
2020/12/11 02:51:24;;;;;;;143.35;51.53;;;3.40;88.70;;;;;;5066114;28;20032;-66
2020/12/11 02:53:50;;;;;;;153.60;54.83;;;3.40;88.60;;;;;;5069315;28;20025;-65
2020/12/11 02:56:23;;;;;;;153.73;53.80;;;3.40;88.20;;;;;;5070521;28;20033;-66
2020/12/11 02:58:49;;;;;;;144.60;52.40;;;3.20;89.60;;;;;;5071300;28;20158;-66
2020/12/11 03:01:15;;;;;;;159.30;56.92;;;3.30;89.60;;;;;;5071994;28;20043;-65
2020/12/11 03:03:40;;;;;;;140.38;51.60;;;3.20;89.10;;;;;;5072086;28;20037;-67
2020/12/11 03:06:06;;;;;;;150.77;51.10;;;3.20;89.20;;;;;;5067612;28;20099;-66
2020/12/11 03:08:32;;;;;;;149.98;52.08;;;3.20;89.50;;;;;;5073162;28;20122;-65
2020/12/11 03:10:58;;;;;;;150.38;53.50;;;3.20;89.50;;;;;;5070032;28;20111;-65
2020/12/11 03:13:24;;;;;;;148.57;52.83;;;3.30;89.40;;;;;;5070636;28;20032;-65
2020/12/11 03:15:49;;;;;;;161.93;53.90;;;3.30;89.30;;;;;;5072328;28;20048;-65
2020/12/11 03:18:15;;;;;;;143.13;53.35;;;3.30;89.10;;;;;;5067985;28;20032;-66
2020/12/11 03:20:40;;;;;;;164.77;55.05;;;3.40;89.30;;;;;;5075907;28;20063;-65
2020/12/11 03:23:06;;;;;;;151.70;52.63;;;3.40;89.00;;;;;;5082435;28;20101;-63
2020/12/11 03:25:32;;;;;;;149.40;51.78;;;3.30;89.20;;;;;;5081782;28;20051;-64
2020/12/11 03:27:57;;;;;;;149.27;51.35;;;3.30;89.50;;;;;;5063900;28;20113;-65
2020/12/11 03:30:23;;;;;;;158.38;57.22;;;3.20;89.80;;;;;;5065505;28;20085;-66
2020/12/11 03:32:48;;;;;;;148.35;53.05;;;3.10;90.10;;;;;;5072343;28;20408;-65
2020/12/11 03:35:14;;;;;;;161.48;54.70;;;3.10;90.20;;;;;;5072885;28;20055;-64
2020/12/11 03:37:40;;;;;;;149.38;53.70;;;3.20;90.10;;;;;;5062156;28;20044;-66
2020/12/11 03:40:05;;;;;;;161.57;52.88;;;3.10;90.10;;;;;;5072655;28;20048;-66
2020/12/11 03:42:31;;;;;;;145.20;51.58;;;3.10;90.20;;;;;;5073734;28;20434;-66
2020/12/11 03:44:57;;;;;;;157.00;51.13;;;3.20;90.20;;;;;;5064980;28;20086;-66
2020/12/11 03:47:23;;;;;;;156.77;54.88;;;3.20;90.20;;;;;;5069491;28;20078;-65
2020/12/11 03:49:48;;;;;;;144.95;52.42;;;3.20;90.40;;;;;;5072804;28;20082;-65
2020/12/11 03:52:14;;;;;;;155.63;53.03;;;3.30;90.20;;;;;;5077906;28;20052;-67
2020/12/11 03:54:40;;;;;;;150.57;53.45;;;3.30;90.10;;;;;;5053542;28;20044;-67
2020/12/11 03:57:05;;;;;;;147.52;52.00;;;3.30;90.00;;;;;;5072242;28;20101;-68
2020/12/11 03:59:31;;;;;;;145.30;48.97;;;3.30;89.90;;;;;;5071082;28;20039;-67
2020/12/11 04:01:56;;;;;;;142.70;49.72;;;3.40;90.00;;;;;;5077058;28;20060;-66
2020/12/11 04:04:22;;;;;;;157.13;51.03;;;3.40;89.60;;;;;;5075281;28;20040;-67
2020/12/11 04:06:48;;;;;;;144.52;49.65;;;3.50;89.20;;;;;;5075605;28;20365;-66
2020/12/11 04:09:13;;;;;;;129.27;46.30;;;3.40;89.40;;;;;;5061693;28;20039;-66
2020/12/11 04:11:39;;;;;;;141.77;50.28;;;3.40;90.00;;;;;;5080103;28;20032;-66
2020/12/11 04:14:05;;;;;;;132.27;48.30;;;3.40;89.60;;;;;;5072956;28;20032;-67
2020/12/11 04:16:33;;;;;;;139.10;48.88;;;3.40;89.90;;;;;;5073650;28;20048;-65
2020/12/11 04:19:00;;;;;;;142.40;47.38;;;3.30;90.00;;;;;;5075023;28;20071;-66
2020/12/11 04:21:25;;;;;;;143.27;48.22;;;3.20;90.40;;;;;;5072172;28;20028;-66
2020/12/11 04:23:51;;;;;;;128.88;46.10;;;3.10;90.20;;;;;;5066489;28;20125;-65
2020/12/11 04:26:17;;;;;;;134.57;46.33;;;3.10;90.70;;;;;;5067869;28;20583;-66
2020/12/11 04:28:42;;;;;;;145.40;48.28;;;3.10;90.60;;;;;;5072293;28;20048;-65
2020/12/11 04:31:08;;;;;;;135.65;46.30;;;3.00;90.90;;;;;;5054194;28;20056;-66
2020/12/11 04:33:33;;;;;;;142.45;46.78;;;3.00;91.00;;;;;;5072611;28;20090;-64
2020/12/11 04:35:59;;;;;;;144.77;50.35;;;2.90;91.10;;;;;;5072307;28;20041;-66
2020/12/11 04:38:25;;;;;;;134.70;48.60;;;2.90;91.20;;;;;;5073040;28;20170;-66
2020/12/11 04:40:58;;;;;;;134.00;48.15;;;3.00;91.20;;;;;;5078978;28;20048;-66
2020/12/11 04:43:24;;;;;;;131.30;45.60;;;3.00;91.10;;;;;;5081271;28;20048;-64
2020/12/11 04:45:51;;;;;;;136.65;47.67;;;2.90;91.20;;;;;;5077335;28;20054;-65
2020/12/11 04:48:16;;;;;;;140.93;47.40;;;2.90;91.30;;;;;;5054679;28;20051;-67
2020/12/11 04:50:43;;;;;;;135.20;46.53;;;2.90;91.50;;;;;;5074277;28;20032;-66
2020/12/11 04:53:14;;;;;;;129.38;44.80;;;2.90;91.50;;;;;;5073917;28;20046;-66
2020/12/11 04:55:46;;;;;;;128.60;43.67;;;3.00;91.20;;;;;;5046822;28;20287;-66
2020/12/11 04:58:16;;;;;;;126.85;43.90;;;2.90;91.50;;;;;;5071842;28;20048;-67
2020/12/11 05:00:43;;;;;;;133.15;48.20;;;2.90;91.40;;;;;;5053335;28;20058;-66
2020/12/11 05:03:15;;;;;;;121.70;44.22;;;2.90;91.70;;;;;;5068218;28;20032;-66
2020/12/11 05:05:40;;;;;;;122.47;43.85;;;2.90;91.40;;;;;;5054923;28;20503;-65
2020/12/11 05:08:19;;;;;;;113.90;39.28;;;2.90;91.30;;;;;;5073158;28;20086;-66
2020/12/11 05:10:48;;;;;;;123.43;44.33;;;2.90;91.60;;;;;;5069163;28;20403;-66
2020/12/11 05:13:18;;;;;;;126.90;43.15;;;2.90;91.30;;;;;;5071661;28;20089;-67
2020/12/11 05:15:44;;;;;;;128.48;46.25;;;2.90;91.40;;;;;;5070497;28;20037;-67
2020/12/11 05:18:19;;;;;;;126.20;41.17;;;2.90;91.50;;;;;;5077110;28;20054;-67
2020/12/11 05:20:45;;;;;;;120.68;42.03;;;2.90;91.40;;;;;;5054534;28;20029;-65
2020/12/11 05:23:11;;;;;;;135.32;53.25;;;2.90;91.50;;;;;;5071874;28;20037;-67
2020/12/11 05:25:37;;;;;;;121.70;45.08;;;2.90;91.60;;;;;;5070978;28;20029;-66
2020/12/11 05:28:02;;;;;;;122.60;44.65;;;3.00;91.30;;;;;;5068005;28;20393;-67
2020/12/11 05:30:28;;;;;;;123.88;42.67;;;3.00;91.30;;;;;;5059717;28;20113;-67
2020/12/11 05:32:58;;;;;;;114.53;41.72;;;3.00;91.20;;;;;;5048630;28;20040;-67
2020/12/11 05:35:31;;;;;;;116.22;41.85;;;3.00;91.30;;;;;;5070998;28;20048;-67
2020/12/11 05:38:04;;;;;;;126.28;44.05;;;2.90;91.60;;;;;;5065449;28;20111;-66
2020/12/11 05:40:38;;;;;;;111.78;41.53;;;2.80;92.00;;;;;;5054706;28;20033;-66
2020/12/11 05:43:09;;;;;;;109.78;40.30;;;2.90;91.90;;;;;;5072664;28;20024;-66
2020/12/11 05:45:46;;;;;;;96.57;38.15;;;3.00;91.60;;;;;;5053940;28;20058;-65
2020/12/11 05:48:12;;;;;;;97.47;38.35;;;3.10;91.30;;;;;;5073613;28;20028;-66
2020/12/11 05:50:38;;;;;;;103.47;37.63;;;3.20;91.20;;;;;;5053181;28;20034;-65
2020/12/11 05:53:04;;;;;;;92.22;36.97;;;3.10;91.20;;;;;;5058675;28;20392;-67
2020/12/11 05:55:29;;;;;;;98.30;38.20;;;3.20;91.20;;;;;;5067143;28;20041;-67
2020/12/11 05:57:57;;;;;;;101.72;36.63;;;3.20;91.00;;;;;;5069107;28;20033;-67
2020/12/11 06:00:23;;;;;;;98.13;37.20;;;3.00;91.20;;;;;;5071164;28;20064;-68
2020/12/11 06:02:50;;;;;;;98.57;35.00;;;2.90;91.70;;;;;;5069742;28;20375;-67
2020/12/11 06:05:17;;;;;;;92.80;34.63;;;3.00;91.70;;;;;;5071795;28;20132;-68
2020/12/11 06:07:45;;;;;;;98.18;35.60;;;3.00;91.50;;;;;;5071028;28;20086;-67
2020/12/11 06:10:13;;;;;;;89.30;34.33;;;3.00;91.50;;;;;;5074029;28;20032;-67
2020/12/11 06:12:40;;;;;;;92.70;35.47;;;3.00;91.60;;;;;;5071157;28;20425;-67
2020/12/11 06:15:24;;;;;;;90.35;34.55;;;3.10;91.40;;;;;;5071311;28;20098;-67
2020/12/11 06:18:17;;;;;;;77.97;33.00;;;3.20;91.40;;;;;;5070238;28;20149;-67
2020/12/11 06:20:45;;;;;;;80.75;33.47;;;3.20;91.10;;;;;;5073127;28;20093;-67
2020/12/11 06:23:26;;;;;;;89.43;36.00;;;3.00;91.30;;;;;;5073591;28;20059;-67
2020/12/11 06:25:56;;;;;;;91.15;36.47;;;3.00;91.50;;;;;;5072125;28;20068;-67
2020/12/11 06:28:44;;;;;;;94.13;35.65;;;2.90;91.80;;;;;;5069459;28;20033;-68
2020/12/11 06:31:21;;;;;;;89.32;35.30;;;3.00;91.60;;;;;;5066898;28;20032;-67
2020/12/11 06:33:53;;;;;;;92.57;36.38;;;3.00;91.70;;;;;;5071843;28;20036;-67
2020/12/11 06:36:19;;;;;;;90.28;34.80;;;2.90;91.70;;;;;;5070228;28;20036;-67
2020/12/11 06:38:46;;;;;;;92.55;37.95;;;2.90;91.90;;;;;;5075233;28;20519;-67
2020/12/11 06:41:12;;;;;;;87.80;35.63;;;3.00;91.40;;;;;;5074180;28;20028;-67
2020/12/11 06:43:45;;;;;;;87.30;34.63;;;2.80;91.80;;;;;;5074006;28;20495;-68
2020/12/11 06:46:17;;;;;;;96.80;37.08;;;2.80;91.90;;;;;;5078347;28;20047;-67
2020/12/11 06:49:07;;;;;;;86.78;35.05;;;2.80;92.20;;;;;;5074719;28;20144;-68
2020/12/11 06:51:34;;;;;;;104.75;45.25;;;2.80;92.10;;;;;;5073713;28;20032;-66
2020/12/11 06:54:00;;;;;;;88.05;35.00;;;2.80;92.10;;;;;;5072153;28;20033;-68
2020/12/11 06:56:45;;;;;;;93.90;37.05;;;2.90;91.70;;;;;;5058889;28;20472;-67
2020/12/11 06:59:36;;;;;;;;;;;2.90;91.90;;;;;;5074929;28;20095;-68
2020/12/11 07:02:02;;;;;;;87.50;33.80;;;2.80;92.10;;;;;;5069148;28;20375;-68
2020/12/11 07:04:41;;;;;;;93.50;36.22;;;2.90;92.10;;;;;;5073554;28;20037;-67
2020/12/11 07:07:07;;;;;;;89.50;36.75;;;2.80;92.20;;;;;;5071577;28;20028;-68
2020/12/11 07:09:43;;;;;;;84.05;34.50;;;2.90;92.20;;;;;;5074113;28;20491;-67
2020/12/11 07:12:09;;;;;;;80.80;35.40;;;3.00;92.20;;;;;;5077036;28;20028;-67
2020/12/11 07:14:35;;;;;;;77.93;34.22;;;3.00;91.60;;;;;;5075139;28;20452;-68
2020/12/11 07:17:00;;;;;;;82.75;36.33;;;3.10;91.70;;;;;;5080373;28;20518;-67
2020/12/11 07:19:31;;;;;;;74.82;33.15;;;3.10;91.50;;;;;;5072163;28;20079;-67
2020/12/11 07:21:57;;;;;;;69.35;33.30;;;3.10;91.50;;;;;;5079593;28;20394;-68
2020/12/11 07:24:23;;;;;;;72.72;30.63;;;3.20;91.50;;;;;;5052107;28;20040;-67
2020/12/11 07:26:58;;;;;;;76.90;32.92;;;3.30;91.40;;;;;;5075010;28;20039;-67
2020/12/11 07:29:24;;;;;;;63.55;30.63;;;3.20;91.10;;;;;;5067378;28;20039;-68
2020/12/11 07:31:50;;;;;;;65.85;30.80;;;3.20;91.20;;;;;;5072634;28;20637;-68
2020/12/11 07:34:19;;;;;;;71.32;32.13;;;3.20;91.20;;;;;;5055336;28;20392;-67
2020/12/11 07:36:46;;;;;;;65.60;30.50;;;3.30;91.20;;;;;;5077493;28;20040;-68
2020/12/11 07:39:15;;;;;;;62.08;31.08;;;3.30;91.10;;;;;;5073357;28;20036;-68
2020/12/11 07:41:45;;;;;;;67.95;30.02;;;3.40;90.90;;;;;;5076511;28;20055;-67
2020/12/11 07:44:23;;;;;;;64.15;31.30;;;3.30;91.00;;;;;;5073064;28;20035;-68
2020/12/11 07:46:50;;;;;;;69.28;30.77;;;3.40;90.80;;;;;;5074709;28;20036;-66
2020/12/11 07:49:16;;;;;;;67.25;31.75;;;3.30;90.90;;;;;;5073295;28;20056;-67
2020/12/11 07:51:49;;;;;;;60.65;30.02;;;3.30;91.00;;;;;;5072378;28;20076;-67
2020/12/11 07:54:15;;;;;;;62.08;28.73;;;3.40;90.90;;;;;;5053768;28;20032;-66
2020/12/11 07:56:41;;;;;;;64.22;31.83;;;3.50;90.70;;;;;;5073463;28;20044;-66
2020/12/11 07:59:14;;;;;;;61.75;30.45;;;3.50;90.50;;;;;;5054925;28;20041;-66
2020/12/11 08:01:46;;;;;;;56.78;27.75;;;3.60;90.50;;;;;;5073574;28;20029;-69
2020/12/11 08:04:13;;;;;;;52.22;27.30;;;3.60;90.10;;;;;;5053428;28;20062;-65
2020/12/11 08:06:38;;;;;;;58.55;31.02;;;3.70;90.20;;;;;;5065077;28;20033;-67
2020/12/11 08:09:11;;;;;;;55.95;28.83;;;3.70;90.00;;;;;;5055508;28;20037;-67
2020/12/11 08:11:37;;;;;;;53.42;27.00;;;3.80;90.00;;;;;;5072972;28;20040;-67
2020/12/11 08:14:12;;;;;;;53.92;27.85;;;3.80;89.70;;;;;;5074432;28;20032;-67
2020/12/11 08:16:39;;;;;;;73.13;41.38;;;3.90;89.50;;;;;;5063378;28;20530;-67
2020/12/11 08:19:09;;;;;;;77.43;38.20;;;3.90;89.40;;;;;;5083567;28;20031;-66
2020/12/11 08:21:35;;;;;;;58.83;30.17;;;3.90;89.50;;;;;;5072880;28;20036;-67
2020/12/11 08:24:00;;;;;;;55.50;28.25;;;3.90;89.30;;;;;;5074394;28;20123;-67
2020/12/11 08:26:36;;;;;;;61.03;30.45;;;4.00;89.80;;;;;;5072916;28;20028;-66
2020/12/11 08:29:06;;;;;;;110.90;58.58;;;3.90;89.60;;;;;;5067718;28;20507;-67
2020/12/11 08:31:40;;;;;;;62.75;32.45;;;4.00;89.50;;;;;;5068927;28;20039;-68
2020/12/11 08:34:10;;;;;;;52.63;27.23;;;4.00;89.20;;;;;;5072302;28;20099;-66
2020/12/11 08:36:42;;;;;;;56.67;27.75;;;4.00;89.20;;;;;;5069053;28;20040;-66
2020/12/11 08:39:12;;;;;;;53.67;28.45;;;3.90;89.20;;;;;;5054988;28;20029;-66
2020/12/11 08:41:46;;;;;;;50.42;25.90;;;3.90;89.30;;;;;;5077193;28;20168;-67
2020/12/11 08:49:50;;;;;;;51.17;26.25;;;4.00;88.70;;;;;;5072849;28;20044;-67
2020/12/11 08:52:16;;;;;;;52.10;27.13;;;3.90;89.20;;;;;;5072302;28;20055;-66
2020/12/11 08:54:41;;;;;;;49.22;26.67;;;4.00;89.80;;;;;;5072173;28;20584;-67
2020/12/11 08:57:07;;;;;;;48.83;27.08;;;4.00;89.40;;;;;;5072361;28;20391;-68
2020/12/11 08:59:33;;;;;;;53.45;26.13;;;4.10;88.90;;;;;;5069665;28;20118;-66
2020/12/11 09:02:03;;;;;;;50.30;26.55;;;4.00;88.10;;;;;;5070470;28;20036;-67
2020/12/11 09:04:28;;;;;;;50.10;26.48;;;3.90;89.00;;;;;;5065686;28;20032;-66
2020/12/11 09:06:54;;;;;;;49.25;25.63;;;3.90;88.40;;;;;;5083731;28;20422;-69
2020/12/11 09:09:20;;;;;;;45.80;25.85;;;4.00;88.40;;;;;;5082874;28;20036;-66
2020/12/11 09:11:46;;;;;;;47.17;25.58;;;4.00;88.20;;;;;;5067255;28;20591;-68
2020/12/11 09:14:12;;;;;;;43.30;25.77;;;3.90;88.70;;;;;;5072601;28;20128;-68
2020/12/11 09:16:38;;;;;;;48.20;24.65;;;4.00;89.00;;;;;;5075358;28;20576;-68
2020/12/11 09:19:06;;;;;;;44.55;25.27;;;4.00;88.70;;;;;;5071673;28;20387;-68
2020/12/11 09:21:32;;;;;;;43.25;24.85;;;4.00;88.30;;;;;;5053200;28;21409;-66
2020/12/11 09:23:57;;;;;;;48.60;26.50;;;3.90;88.30;;;;;;5072967;28;20033;-68
2020/12/11 09:26:25;;;;;;;49.83;26.15;;;3.80;88.60;;;;;;5054844;28;20040;-68
2020/12/11 09:29:03;;;;;;;45.00;25.10;;;3.80;89.30;;;;;;5053430;28;20403;-68
2020/12/11 09:31:30;;;;;;;41.42;22.67;;;3.90;89.20;;;;;;5042972;28;20040;-68
2020/12/11 09:33:56;;;;;;;39.40;23.35;;;3.90;88.60;;;;;;5065054;28;20037;-67
2020/12/11 09:36:25;;;;;;;38.50;24.08;;;3.90;88.40;;;;;;5077562;28;20090;-68
2020/12/11 09:38:52;;;;;;;41.00;23.40;;;3.90;88.50;;;;;;5054932;28;20499;-67
2020/12/11 09:41:27;;;;;;;43.70;23.40;;;3.80;88.60;;;;;;5075172;28;20036;-67
2020/12/11 09:47:48;;;;;;;45.45;24.42;;;4.00;88.10;;;;;;5011738;28;20042;-65
2020/12/11 09:54:46;;;;;;;40.50;24.83;;;4.20;87.50;;;;;;5074668;28;20044;-64
2020/12/11 09:57:12;;;;;;;38.15;23.10;;;4.30;86.90;;;;;;5072591;28;20576;-66
2020/12/11 09:59:48;;;;;;;46.92;27.83;;;4.30;86.00;;;;;;5076964;28;20045;-66
2020/12/11 10:04:54;;;;;;;37.40;22.13;;;4.40;85.70;;;;;;5077928;28;20107;-66
2020/12/11 10:07:19;;;;;;;39.47;21.17;;;4.40;85.80;;;;;;5072042;28;20107;-66
2020/12/11 10:09:45;;;;;;;33.67;20.85;;;4.50;85.60;;;;;;5074879;28;20068;-65
2020/12/11 10:12:11;;;;;;;37.58;20.75;;;4.50;85.20;;;;;;5073333;28;20078;-65
2020/12/11 10:14:47;;;;;;;34.50;20.83;;;4.50;84.70;;;;;;5073136;28;20048;-66
2020/12/11 10:17:14;;;;;;;34.85;21.27;;;4.50;84.90;;;;;;5073641;28;20074;-65
2020/12/11 10:19:39;;;;;;;29.50;19.52;;;4.60;84.60;;;;;;5073690;28;20024;-64
2020/12/11 10:22:05;;;;;;;31.08;20.83;;;4.60;84.30;;;;;;5078808;28;20102;-65
2020/12/11 10:24:31;;;;;;;34.40;21.05;;;4.70;84.30;;;;;;5075821;28;20093;-65
2020/12/11 10:26:56;;;;;;;31.42;19.98;;;4.70;84.10;;;;;;5071876;28;20043;-64
2020/12/11 10:29:22;;;;;;;32.75;20.00;;;4.70;84.10;;;;;;5074877;28;20506;-66
2020/12/11 10:31:48;;;;;;;30.50;19.88;;;4.80;83.50;;;;;;5077023;28;20033;-65
2020/12/11 10:34:16;;;;;;;32.08;21.92;;;4.90;83.30;;;;;;5074790;28;20032;-65
2020/12/11 10:36:42;;;;;;;28.25;19.88;;;4.90;83.20;;;;;;5075515;28;20036;-64
2020/12/11 10:39:09;;;;;;;29.73;19.20;;;4.90;83.10;;;;;;5073110;28;20768;-65
2020/12/11 10:41:35;;;;;;;30.23;19.42;;;5.10;82.30;;;;;;5079325;28;20043;-66
2020/12/11 10:44:03;;;;;;;30.88;22.40;;;5.00;82.60;;;;;;5074932;28;20062;-67
2020/12/11 10:46:29;;;;;;;30.23;20.90;;;4.90;83.30;;;;;;5076002;28;20116;-67
2020/12/11 10:48:55;;;;;;;25.88;18.35;;;4.90;82.50;;;;;;5057671;28;20111;-65
2020/12/11 10:51:20;;;;;;;31.45;19.67;;;4.90;82.70;;;;;;5074297;28;20403;-67
2020/12/11 10:53:47;;;;;;;30.90;19.25;;;4.90;82.80;;;;;;5074169;28;20040;-64
2020/12/11 10:56:14;;;;;;;29.52;19.05;;;5.00;82.60;;;;;;5055150;28;20706;-67
2020/12/11 10:58:40;;;;;;;26.98;17.90;;;5.00;82.40;;;;;;5074231;28;20041;-65
2020/12/11 11:01:07;;;;;;;29.85;19.23;;;5.00;82.10;;;;;;5067255;28;20040;-65
2020/12/11 11:03:33;;;;;;;27.13;18.98;;;5.10;82.20;;;;;;5073760;28;20036;-67
2020/12/11 11:06:07;;;;;;;32.85;21.60;;;5.10;81.50;;;;;;5065120;28;20119;-66
2020/12/11 11:08:46;;;;;;;29.08;18.67;;;5.10;81.60;;;;;;5072177;28;20029;-66
2020/12/11 11:11:19;;;;;;;26.65;19.05;;;5.20;81.00;;;;;;5050930;28;20064;-67
2020/12/11 11:16:16;;;;;;;27.17;18.08;;;5.10;81.40;;;;;;5074336;28;20041;-66
2020/12/11 11:18:54;;;;;;;29.50;20.77;;;5.10;81.40;;;;;;5073895;28;20036;-65
2020/12/11 11:21:53;;;;;;;26.63;18.65;;;5.10;81.60;;;;;;5078520;28;20038;-65
2020/12/11 11:29:33;;;;;;;29.42;20.55;;;5.20;83.30;;;;;;5067668;28;20041;-65
2020/12/11 11:31:58;;;;;;;33.97;23.27;;;5.40;83.70;;;;;;5070441;28;20495;-63
2020/12/11 11:34:24;;;;;;;29.83;20.27;;;5.50;82.10;;;;;;5075303;28;20033;-65
2020/12/11 11:36:51;;;;;;;28.02;19.05;;;5.50;81.70;;;;;;5069406;28;20040;-65
2020/12/11 11:39:16;;;;;;;26.23;19.00;;;5.70;80.60;;;;;;5056690;28;20041;-65
2020/12/11 11:41:46;;;;;;;26.20;18.40;;;5.60;80.20;;;;;;5073590;28;20029;-66
2020/12/11 11:46:47;;;;;;;24.85;17.80;;;5.60;80.00;;;;;;5071539;28;20546;-65
2020/12/11 11:49:16;;;;;;;29.25;19.63;;;5.60;80.30;;;;;;5077315;28;20411;-65
2020/12/11 11:52:14;;;;;;;26.60;17.55;;;5.50;80.40;;;;;;5056371;28;20155;-65
2020/12/11 11:54:28;;;;;;;23.48;17.52;;;5.40;80.00;;;;;;5070529;28;20119;-66
2020/12/11 11:56:57;;;;;;;26.80;18.58;;;5.40;80.60;;;;;;5074847;28;20068;-64
2020/12/11 11:59:23;;;;;;;25.20;18.33;;;5.50;80.60;;;;;;5070234;28;20031;-65
2020/12/11 12:01:53;;;;;;;23.52;17.88;;;5.40;80.30;;;;;;5073695;28;20033;-65
2020/12/11 12:04:18;;;;;;;24.25;17.90;;;5.40;80.30;;;;;;5069724;28;20514;-65
2020/12/11 12:06:44;;;;;;;24.30;17.38;;;5.50;80.10;;;;;;5068780;28;20029;-66
2020/12/11 12:09:09;;;;;;;23.88;18.05;;;5.50;80.10;;;;;;5060812;28;20078;-66
2020/12/11 12:11:35;;;;;;;24.95;17.63;;;5.40;80.50;;;;;;5068438;28;20032;-66
2020/12/11 12:14:01;;;;;;;25.48;17.60;;;5.30;80.20;;;;;;5070449;28;20098;-65
2020/12/11 12:16:26;;;;;;;26.33;18.23;;;5.30;80.50;;;;;;5061468;28;20503;-66
2020/12/11 12:18:55;;;;;;;24.02;17.38;;;5.30;81.00;;;;;;5071579;28;20041;-67
2020/12/11 12:21:33;;;;;;;25.92;18.48;;;5.30;81.40;;;;;;5067606;28;20593;-64
2020/12/11 12:29:09;;;;;;;26.17;17.20;;;5.40;80.90;;;;;;5067799;28;20134;-65
2020/12/11 12:31:43;;;;;;;24.75;17.75;;;5.40;80.20;;;;;;5060168;28;20044;-65
2020/12/11 12:34:40;;;;;;;25.17;18.17;;;5.40;80.60;;;;;;5068699;28;20028;-63
2020/12/11 12:45:04;;;;;;;25.30;17.40;;;5.50;80.30;;;;;;5072378;28;20086;-65
2020/12/11 12:47:30;;;;;;;25.63;17.83;;;5.50;80.60;;;;;;5073099;28;20031;-65
2020/12/11 12:49:55;;;;;;;28.70;17.42;;;5.50;80.10;;;;;;5060095;28;20032;-65
2020/12/11 12:52:21;;;;;;;26.33;17.23;;;5.40;80.30;;;;;;5071879;28;20041;-64
2020/12/11 12:54:46;;;;;;;22.08;16.73;;;5.40;80.10;;;;;;5071812;28;20044;-64
2020/12/11 12:59:51;;;;;;;23.55;16.88;;;5.40;80.10;;;;;;5077726;28;20040;-65
2020/12/11 13:02:35;;;;;;;28.35;17.15;;;5.40;80.10;;;;;;5073063;28;20023;-64
2020/12/11 13:05:08;;;;;;;23.45;16.17;;;5.30;80.00;;;;;;5066723;28;20491;-65
2020/12/11 13:07:34;;;;;;;22.83;17.25;;;5.40;79.60;;;;;;5071758;28;20423;-64
2020/12/11 13:10:00;;;;;;;22.90;16.88;;;5.30;80.30;;;;;;5073661;28;20450;-66
2020/12/11 13:12:26;;;;;;;21.50;14.90;;;5.30;80.40;;;;;;5066083;28;20059;-66
2020/12/11 13:14:52;;;;;;;23.08;16.08;;;5.30;80.40;;;;;;5060972;28;20040;-67
2020/12/11 13:17:18;;;;;;;23.23;17.10;;;5.30;79.60;;;;;;5073017;28;20052;-67
2020/12/11 13:19:44;;;;;;;22.88;16.38;;;5.40;79.90;;;;;;5067160;28;20142;-66